Главная страница
METAR-TAF:

METAR-TAF

Аэропорты :

Крайстчерч, Новая Зеландия

широта: 43-29S, долгота: 172-33E, высота над уровнем моря: 38 м

Текущие метеонаблюдения

Эта сводка был подготовлена 29 минут назад, в 23:00 UTC
Ветер 3 Узел от восточно-северо-восточный
Температура 12°C
Влажность 67%
Давление 994 hPa
Видимость 10 км и более

METAR: NZCH 212300Z AUTO 07003KT 9999 NCD 12/06 Q0994 NOSIG

Время: 11:29 (23:29 UTC)

Прогноз

Эта сводка был подготовлена 6 часа и 16 минут назад, в 17:13 UTC
Прогноз действительный с 21-го 18 UTC до 22-го 18 UTC
Ветер 5 Узел от западно-северо-западный
Видимость 10 км и более
Нет облачности ниже 1500 м, и нет кучево-дождевой облачности
временами
С 21-го 18 UTC до 21-го 20 UTC
Видимость: 2000 м
дымка

TAF: NZCH 211713Z 2118/2218 30005KT CAVOK TEMPO 2118/2120 2000 BR

Метеонаблюдения и прогнозы для более 4000 аэропортов (сводки METAR и TAF).

Имеющиеся станции представлены на карте желтыми и красными точками.

Чтобы увидеть название станции, наведите на нее мышь.

Затем щелкните, чтобы увидеть метеонаблюдения и метеопрогнозы.

Управление картой: чтобы увеличить масштаб, щелкните зеленые кнопки с черным крестиком; чтобы уменьшить масштаб, щелкните зеленую кнопку с тире; для просмотра соседних карт щелкайте зеленые стрелки.


METAR-TAF: